This is the latest recevied weather packets stored in our database for station/object WA4OPQ-3. If no packets are shown the sender has not sent any weather packets the latest 10 day(s).
| Time | Temp. | Humidity | Pressure | Rain* | Wind** | Luminosity | Snow |
|---|---|---|---|---|---|---|---|
| 1777767233 | 13.33° C | 69% | 1016.4 hPa | 0 mm | - | 13 W/m² | - |
| 1777766628 | 13.89° C | 68% | 1016.4 hPa | 0 mm | - | 19 W/m² | - |
| 1777766023 | 13.89° C | 65% | 1016.4 hPa | 0 mm | - | 23 W/m² | - |
| 1777765417 | 14.44° C | 65% | 1016 hPa | 0 mm | - | 30 W/m² | - |
| 1777764813 | 15° C | 65% | 1015.9 hPa | 0 mm | - | 38 W/m² | - |
| 1777764213 | 15.56° C | 66% | 1015.6 hPa | 0 mm | - | 46 W/m² | - |
| 1777763603 | 16.67° C | 60% | 1015.3 hPa | 0 mm | - | 72 W/m² | - |
| 1777762998 | 16.67° C | 60% | 1014.9 hPa | 0 mm | - | 51 W/m² | - |
| 1777762393 | 16.67° C | 57% | 1014.8 hPa | 0 mm | - | 78 W/m² | - |
| 1777761789 | 16.67° C | 54% | 1014.6 hPa | 0 mm | - | 81 W/m² | - |
| 1777761184 | 16.67° C | 56% | 1014.8 hPa | 0 mm | - | 76 W/m² | - |
| 1777760577 | 16.67° C | 53% | 1014.8 hPa | 0 mm | - | 53 W/m² | - |
| 1777759972 | 16.67° C | 52% | 1014.7 hPa | 0 mm | - | 125 W/m² | - |
| 1777759368 | 17.22° C | 51% | 1014.8 hPa | 0 mm | - | 95 W/m² | - |
| 1777758763 | 16.67° C | 56% | 1015 hPa | 0 mm | - | 132 W/m² | - |
| 1777758157 | 16.67° C | 57% | 1014.8 hPa | 0 mm | - | 137 W/m² | - |
| 1777757552 | 17.22° C | 54% | 1014.7 hPa | 0 mm | - | 73 W/m² | - |
| 1777756947 | 17.78° C | 52% | 1014.5 hPa | 0 mm | - | 518 W/m² | - |
| 1777756342 | 17.78° C | 49% | 1014.6 hPa | 0 mm | - | 234 W/m² | - |
| 1777755738 | 18.33° C | 50% | 1014.6 hPa | 0 mm | - | 450 W/m² | - |
| 1777755132 | 18.33° C | 50% | 1014.9 hPa | 0 mm | - | 598 W/m² | - |
| 1777754527 | 17.78° C | 49% | 1014.6 hPa | 0 mm | - | 177 W/m² | - |
| 1777753921 | 18.89° C | 48% | 1014.7 hPa | 0 mm | - | 635 W/m² | - |
| 1777753316 | 17.22° C | 48% | 1014.8 hPa | 0 mm | - | 278 W/m² | - |
| 1777752710 | 17.78° C | 49% | 1014.9 hPa | 0 mm | - | 113 W/m² | - |
* Rain latest hour (hover to see other rain measurements)
** Current wind speed in m/s (hover to see current wind gust speed)